Scf Pioneer — A8YG6 — position and weather

sailwx.info

Track history (hours):
 
Tides and Currents Weather Stations Pressure Air Temp Water Temp Dewpoint Dewpoint Depression Visibility Wind Speed Wind Dir Waves Ship Positions

Scf Pioneer

Last reported at 2018-Apr-25 11:50 UTC. Time now 2018-Apr-26 11:22 UTC.
Position N 07°20' W 015°15'.

Length 228 m; draft 14 m.

Type: Ship. MMSI: 636015049.

Date/timePositionNaut miles runAvg speedWind from/ knotsBaromVisibWave heightAir tempDewpointWater temp
2018-Apr-25 11:50N 07°20' W 015°15'1912.2
2018-Apr-25 10:18N 07°31' W 015°31'412.1
2018-Apr-25 09:59N 07°33' W 015°34'612.1
2018-Apr-25 09:30N 07°36' W 015°38'2112.0
2018-Apr-25 07:44N 07°49' W 015°56'516.5
2018-Apr-25 07:26N 07°52' W 016°00'4 8.9
2018-Apr-25 07:00N 07°54' W 016°03'612.3
2018-Apr-25 06:31N 07°57' W 016°08'612.3
2018-Apr-25 06:01N 08°01' W 016°13'612.1
2018-Apr-25 05:30N 08°05' W 016°18'812.2
2018-Apr-25 04:53N 08°09' W 016°24'512.4
2018-Apr-25 04:30N 08°12' W 016°28'612.2
2018-Apr-25 04:00N 08°15' W 016°33'612.2
2018-Apr-25 03:30N 08°19' W 016°38'612.2
2018-Apr-25 03:00N 08°22' W 016°43'612.2
2018-Apr-25 02:30N 08°26' W 016°48'612.1
2018-Apr-25 02:00N 08°30' W 016°53'612.2
2018-Apr-25 01:31N 08°33' W 016°58'612.2
2018-Apr-25 01:00N 08°37' W 017°03'612.3
2018-Apr-25 00:30N 08°40' W 017°08'612.2
2018-Apr-25 00:00N 08°44' W 017°13'612.2
2018-Apr-24 23:30N 08°48' W 017°18'612.1
2018-Apr-24 23:01N 08°51' W 017°23'812.2
2018-Apr-24 22:19N 08°56' W 017°30'512.0
2018-Apr-24 21:52N 08°59' W 017°35'412.4
2018-Apr-24 21:30N 09°02' W 017°38'612.3
2018-Apr-24 21:01N 09°05' W 017°43'612.4
2018-Apr-24 20:30N 09°09' W 017°48'612.6
2018-Apr-24 20:00N 09°13' W 017°54'612.6
2018-Apr-24 19:30N 09°16' W 017°59'812.7
2018-Apr-24 18:52N 09°21' W 018°06'412.3
2018-Apr-24 18:30N 09°24' W 018°09'612.3
2018-Apr-24 18:00N 09°27' W 018°14'2212.4
2018-Apr-24 16:15N 09°40' W 018°32'312.1
2018-Apr-24 16:00N 09°42' W 018°34'712.1
2018-Apr-24 15:25N 09°46' W 018°40'511.9
2018-Apr-24 14:58N 09°49' W 018°45'1812.1
2018-Apr-24 13:30N 09°59' W 018°60'612.5
2018-Apr-24 13:01N 10°05' W 019°00'10212.7
2018-Apr-24 05:00N 11°46' W 019°01'  
2018-Apr-20 19:55N 28°06' W 016°14'613.6
2018-Apr-20 19:31N 28°10' W 016°10'913.4
2018-Apr-20 18:49N 28°18' W 016°04'413.2
2018-Apr-20 18:30N 28°21' W 016°01'612.7
2018-Apr-20 18:00N 28°26' W 015°56'612.6
2018-Apr-20 17:31N 28°31' W 015°51'612.5
2018-Apr-20 17:00N 28°35' W 015°47'611.8
2018-Apr-20 16:31N 28°41' W 015°44'612.3
2018-Apr-20 15:59N 28°47' W 015°43'62312.5
2018-Apr-18 14:01N 38°46' W 012°17'011.4
2018-Apr-18 13:59N 38°47' W 012°17'611.4
2018-Apr-18 13:30N 38°52' W 012°15'611.3
2018-Apr-18 12:58N 38°58' W 012°13'811.1
2018-Apr-18 12:14N 39°06' W 012°10'311.2
2018-Apr-18 12:00N 39°08' W 012°09'811.4
2018-Apr-18 11:20N 39°15' W 012°06'511.5
2018-Apr-18 10:56N 39°20' W 012°04'811.5
2018-Apr-18 10:14N 39°28' W 012°02'  
Track history (hours):
 
Tides and Currents Weather Stations Pressure Air Temp Water Temp Dewpoint Dewpoint Depression Visibility Wind Speed Wind Dir Waves Ship Positions

Scf Pioneer

Last reported at 2018-Apr-25 11:50 UTC. Time now 2018-Apr-26 11:22 UTC.
Position N 07°20' W 015°15'.

Length 228 m; draft 14 m.

Type: Ship. MMSI: 636015049.

Date/timePositionNaut miles runAvg speedWind from/ knotsBaromVisibWave heightAir tempDewpointWater temp
2018-Apr-25 11:50N 07°20' W 015°15'1912.2
2018-Apr-25 10:18N 07°31' W 015°31'412.1
2018-Apr-25 09:59N 07°33' W 015°34'612.1
2018-Apr-25 09:30N 07°36' W 015°38'2112.0
2018-Apr-25 07:44N 07°49' W 015°56'516.5
2018-Apr-25 07:26N 07°52' W 016°00'4 8.9
2018-Apr-25 07:00N 07°54' W 016°03'612.3
2018-Apr-25 06:31N 07°57' W 016°08'612.3
2018-Apr-25 06:01N 08°01' W 016°13'612.1
2018-Apr-25 05:30N 08°05' W 016°18'812.2
2018-Apr-25 04:53N 08°09' W 016°24'512.4
2018-Apr-25 04:30N 08°12' W 016°28'612.2
2018-Apr-25 04:00N 08°15' W 016°33'612.2
2018-Apr-25 03:30N 08°19' W 016°38'612.2
2018-Apr-25 03:00N 08°22' W 016°43'612.2
2018-Apr-25 02:30N 08°26' W 016°48'612.1
2018-Apr-25 02:00N 08°30' W 016°53'612.2
2018-Apr-25 01:31N 08°33' W 016°58'612.2
2018-Apr-25 01:00N 08°37' W 017°03'612.3
2018-Apr-25 00:30N 08°40' W 017°08'612.2
2018-Apr-25 00:00N 08°44' W 017°13'612.2
2018-Apr-24 23:30N 08°48' W 017°18'612.1
2018-Apr-24 23:01N 08°51' W 017°23'812.2
2018-Apr-24 22:19N 08°56' W 017°30'512.0
2018-Apr-24 21:52N 08°59' W 017°35'412.4
2018-Apr-24 21:30N 09°02' W 017°38'612.3
2018-Apr-24 21:01N 09°05' W 017°43'612.4
2018-Apr-24 20:30N 09°09' W 017°48'612.6
2018-Apr-24 20:00N 09°13' W 017°54'612.6
2018-Apr-24 19:30N 09°16' W 017°59'812.7
2018-Apr-24 18:52N 09°21' W 018°06'412.3
2018-Apr-24 18:30N 09°24' W 018°09'612.3
2018-Apr-24 18:00N 09°27' W 018°14'2212.4
2018-Apr-24 16:15N 09°40' W 018°32'312.1
2018-Apr-24 16:00N 09°42' W 018°34'712.1
2018-Apr-24 15:25N 09°46' W 018°40'511.9
2018-Apr-24 14:58N 09°49' W 018°45'1812.1
2018-Apr-24 13:30N 09°59' W 018°60'612.5
2018-Apr-24 13:01N 10°05' W 019°00'10212.7
2018-Apr-24 05:00N 11°46' W 019°01'  
2018-Apr-20 19:55N 28°06' W 016°14'613.6
2018-Apr-20 19:31N 28°10' W 016°10'913.4
2018-Apr-20 18:49N 28°18' W 016°04'413.2
2018-Apr-20 18:30N 28°21' W 016°01'612.7
2018-Apr-20 18:00N 28°26' W 015°56'612.6
2018-Apr-20 17:31N 28°31' W 015°51'612.5
2018-Apr-20 17:00N 28°35' W 015°47'611.8
2018-Apr-20 16:31N 28°41' W 015°44'612.3
2018-Apr-20 15:59N 28°47' W 015°43'62312.5
2018-Apr-18 14:01N 38°46' W 012°17'011.4
2018-Apr-18 13:59N 38°47' W 012°17'611.4
2018-Apr-18 13:30N 38°52' W 012°15'611.3
2018-Apr-18 12:58N 38°58' W 012°13'811.1
2018-Apr-18 12:14N 39°06' W 012°10'311.2
2018-Apr-18 12:00N 39°08' W 012°09'811.4
2018-Apr-18 11:20N 39°15' W 012°06'511.5
2018-Apr-18 10:56N 39°20' W 012°04'811.5
2018-Apr-18 10:14N 39°28' W 012°02'  

Dump ship's entire track history